SBCP/CAW METAR and TAF weather

Enter ICAO airport designator
Station Type Date Time Source
SBCP METAR 2021/09/23 21:00 UTC NOAA

SBCP 232100Z 15009KT CAVOK 21/13 Q1022


Station Type Date Time Source
SBCP Decoded METAR 2021/09/23 21:00 UTC NOAA

Campos, Brazil (SBCP) 21-45S 041-20W 11M
Sep 23, 2021 - 05:00 PM EDT / 2021.09.23 2100 UTC
Wind: from the SSE (150 degrees) at 10 MPH (9 KT):0
Visibility: greater than 7 mile(s):0
Temperature: 69 F (21 C)
Dew Point: 55 F (13 C)
Relative Humidity: 60%
Pressure (altimeter): 30.18 in. Hg (1022 hPa)
ob: SBCP 232100Z 15009KT CAVOK 21/13 Q1022
cycle: 21

Station Type Date Time Source
SBCP TAF 2021/09/24 06:24 UTC NOAA

TAF SBCP 240300Z 2406/2418 21010KT 9999 FEW025 TN19/2408Z TX23/2417Z
BECMG 2414/2416 17010KT
RMK PGY

Example: see airport list